Time;durP1;ratioP1;P1;durP2;ratioP2;P2;SDS_P1;SDS_P2;PMS_P1;PMS_P2;Temp;Humidity;BMP_temperature;BMP_pressure;BME280_temperature;BME280_humidity;BME280_pressure;Samples;Min_cycle;Max_cycle;Signal;HPM_P1;HPM_P2
2022/09/08 00:01:30;;;;;;;15.55;4.93;;;;;;;17.67;90.25;100748.34;5045688;28;20429;-80
2022/09/08 00:03:55;;;;;;;20.02;4.97;;;;;;;17.68;90.81;100742.75;5044753;28;20075;-82
2022/09/08 00:06:21;;;;;;;17.63;5.13;;;;;;;17.66;91.49;100747.50;5042166;28;20029;-81
2022/09/08 00:08:47;;;;;;;15.13;4.72;;;;;;;17.66;91.99;100755.66;5049065;28;20037;-80
2022/09/08 00:11:21;;;;;;;15.68;4.60;;;;;;;17.65;92.23;100754.78;5049000;28;20396;-80
2022/09/08 00:13:46;;;;;;;15.30;4.47;;;;;;;17.64;93.95;100755.81;5049653;28;20033;-80
2022/09/08 00:16:12;;;;;;;14.77;4.70;;;;;;;17.60;92.09;100750.84;5047105;28;20475;-80
2022/09/08 00:18:40;;;;;;;12.85;4.13;;;;;;;17.55;93.04;100758.63;5048959;28;20043;-80
2022/09/08 00:21:05;;;;;;;16.27;4.18;;;;;;;17.55;93.82;100750.47;5035033;28;20433;-81
2022/09/08 00:23:31;;;;;;;14.95;4.55;;;;;;;17.53;94.91;100744.38;5042345;28;20025;-81
2022/09/08 00:25:57;;;;;;;15.20;4.90;;;;;;;17.46;94.75;100739.56;5048588;28;20036;-81
2022/09/08 00:28:22;;;;;;;19.73;4.85;;;;;;;17.38;94.54;100733.22;5048949;28;20029;-80
2022/09/08 00:30:47;;;;;;;15.38;4.20;;;;;;;17.32;95.61;100723.00;5033718;28;20024;-80
2022/09/08 00:33:13;;;;;;;16.45;4.80;;;;;;;17.24;95.88;100718.38;5048561;28;20423;-80
2022/09/08 00:35:42;;;;;;;14.50;4.55;;;;;;;17.20;97.44;100717.81;5049571;28;20025;-81
2022/09/08 00:38:07;;;;;;;18.52;4.72;;;;;;;17.16;97.33;100718.31;5038385;28;20104;-80
2022/09/08 00:40:45;;;;;;;15.43;4.63;;;;;;;17.09;97.82;100720.81;5030359;28;20087;-80
2022/09/08 00:43:30;;;;;;;18.83;5.55;;;;;;;17.07;99.03;100720.97;5046475;28;20032;-80
2022/09/08 00:49:21;;;;;;;17.05;4.45;;;;;;;17.08;99.28;100713.66;5034336;28;20504;-80
2022/09/08 00:51:51;;;;;;;14.63;4.55;;;;;;;17.08;99.53;100703.66;5038034;28;20025;-80
2022/09/08 00:54:18;;;;;;;13.98;4.30;;;;;;;17.11;100.00;100700.63;5036810;28;20491;-80
2022/09/08 00:56:45;;;;;;;16.45;4.45;;;;;;;17.07;98.56;100701.97;5050951;28;20431;-79
2022/09/08 00:59:12;;;;;;;18.27;4.80;;;;;;;17.04;99.73;100702.28;5051732;28;20111;-79
2022/09/08 01:01:41;;;;;;;20.83;5.53;;;;;;;16.97;98.49;100705.78;5053171;28;20050;-80
2022/09/08 01:04:08;;;;;;;18.67;4.37;;;;;;;16.88;98.68;100697.59;5043325;28;20087;-80
2022/09/08 01:15:07;;;;;;;15.15;4.53;;;;;;;16.68;100.00;100691.44;5051907;28;20486;-80
2022/09/08 01:17:33;;;;;;;15.18;3.97;;;;;;;16.65;100.00;100685.44;5050328;28;20025;-80
2022/09/08 01:20:00;;;;;;;17.42;4.50;;;;;;;16.64;100.00;100673.75;5049946;28;20083;-80
2022/09/08 01:23:02;;;;;;;13.50;4.10;;;;;;;16.64;100.00;100670.22;5049818;28;20484;-80
2022/09/08 01:25:48;;;;;;;13.63;3.92;;;;;;;16.62;100.00;100662.22;4999238;28;20053;-80
2022/09/08 01:28:36;;;;;;;14.90;4.00;;;;;;;16.62;100.00;100648.66;4994492;28;20113;-81
2022/09/08 01:31:03;;;;;;;18.33;4.78;;;;;;;16.57;100.00;100653.69;5009979;28;20121;-80
2022/09/08 01:33:28;;;;;;;14.57;4.53;;;;;;;16.56;100.00;100641.13;4994634;28;20026;-80
2022/09/08 01:35:54;;;;;;;14.88;4.32;;;;;;;16.54;100.00;100649.41;5010560;28;20053;-80
2022/09/08 01:38:19;;;;;;;15.32;4.20;;;;;;;16.56;100.00;100657.41;5010985;28;20034;-80
2022/09/08 01:40:47;;;;;;;13.55;3.95;;;;;;;16.57;100.00;100662.69;5009933;28;20084;-80
2022/09/08 01:43:12;;;;;;;12.65;4.07;;;;;;;16.56;100.00;100655.56;5005891;28;20041;-80
2022/09/08 01:45:39;;;;;;;16.25;4.00;;;;;;;16.54;100.00;100657.56;5009329;28;20049;-81
2022/09/08 01:48:06;;;;;;;8.10;3.38;;;;;;;16.57;100.00;100659.13;5010588;28;20059;-80
2022/09/08 01:50:31;;;;;;;14.25;3.95;;;;;;;16.56;100.00;100652.84;4994051;28;20045;-80
2022/09/08 01:52:57;;;;;;;12.80;4.18;;;;;;;16.51;100.00;100643.47;4992951;28;20392;-80
2022/09/08 01:55:22;;;;;;;11.77;3.67;;;;;;;16.48;100.00;100641.91;4993020;28;20109;-80
2022/09/08 01:57:47;;;;;;;18.27;4.38;;;;;;;16.47;100.00;100650.22;5009394;28;20586;-80
2022/09/08 02:00:13;;;;;;;13.35;4.05;;;;;;;16.48;100.00;100647.34;5008693;28;20037;-80
2022/09/08 02:02:38;;;;;;;16.48;4.00;;;;;;;16.45;100.00;100635.97;5033632;28;20122;-80
2022/09/08 02:05:04;;;;;;;15.23;4.63;;;;;;;16.43;100.00;100628.81;5051091;28;20059;-80
2022/09/08 02:07:31;;;;;;;11.32;3.88;;;;;;;16.44;100.00;100632.38;5050931;28;20017;-80
2022/09/08 02:09:57;;;;;;;12.43;4.13;;;;;;;16.42;100.00;100616.25;5049865;28;20073;-80
2022/09/08 02:12:22;;;;;;;15.63;4.07;;;;;;;16.40;100.00;100612.03;5049751;28;20114;-80
2022/09/08 02:14:47;;;;;;;13.90;3.97;;;;;;;16.37;100.00;100602.34;5047957;28;20067;-80
2022/09/08 02:17:13;;;;;;;13.40;3.70;;;;;;;16.36;100.00;100607.91;5032000;28;20033;-80
2022/09/08 02:19:38;;;;;;;13.82;4.25;;;;;;;16.34;100.00;100608.06;5032622;28;20052;-80
2022/09/08 02:22:04;;;;;;;11.80;4.38;;;;;;;16.32;100.00;100607.34;5037041;28;20067;-80
2022/09/08 02:24:29;;;;;;;12.68;4.53;;;;;;;16.33;100.00;100609.06;5044789;28;20029;-80
2022/09/08 02:26:55;;;;;;;13.57;4.15;;;;;;;16.33;100.00;100611.78;5031783;28;20384;-80
2022/09/08 02:29:21;;;;;;;11.75;4.13;;;;;;;16.37;100.00;100623.16;5033962;28;20534;-80
2022/09/08 02:31:46;;;;;;;14.10;4.00;;;;;;;16.38;100.00;100614.91;5048508;28;20028;-80
2022/09/08 02:34:12;;;;;;;15.50;4.10;;;;;;;16.38;100.00;100609.47;5030610;28;20112;-80
2022/09/08 02:36:38;;;;;;;12.48;4.18;;;;;;;16.38;100.00;100604.03;5031818;28;20021;-80
2022/09/08 02:39:04;;;;;;;15.82;4.07;;;;;;;16.35;100.00;100604.31;5031987;28;20053;-80
2022/09/08 02:41:29;;;;;;;14.88;4.60;;;;;;;16.33;100.00;100600.09;5035428;28;20033;-80
2022/09/08 02:43:54;;;;;;;12.60;4.18;;;;;;;16.28;100.00;100599.69;5050331;28;20024;-80
2022/09/08 02:46:20;;;;;;;14.18;3.88;;;;;;;16.27;100.00;100597.97;5051446;28;20112;-80
2022/09/08 02:48:46;;;;;;;14.07;4.80;;;;;;;16.28;100.00;100605.13;5046147;28;20040;-80
2022/09/08 02:51:14;;;;;;;16.63;4.20;;;;;;;16.24;100.00;100602.72;5042978;28;20479;-80
2022/09/08 02:53:40;;;;;;;16.08;3.95;;;;;;;16.23;100.00;100603.72;5030575;28;20033;-79
2022/09/08 02:56:07;;;;;;;13.63;3.97;;;;;;;16.23;100.00;100605.59;5034276;28;20110;-79
2022/09/08 02:58:33;;;;;;;13.40;4.22;;;;;;;16.22;100.00;100599.31;5051637;28;20051;-80
2022/09/08 03:00:58;;;;;;;13.25;4.18;;;;;;;16.20;100.00;100601.31;5046417;28;20036;-80
2022/09/08 03:03:25;;;;;;;12.40;3.90;;;;;;;16.22;100.00;100602.03;5046125;28;20036;-80
2022/09/08 03:05:51;;;;;;;12.50;3.85;;;;;;;16.20;100.00;100595.06;5050015;28;20035;-80
2022/09/08 03:08:17;;;;;;;11.40;4.15;;;;;;;16.17;100.00;100601.63;5049096;28;20025;-80
2022/09/08 03:10:43;;;;;;;15.05;4.28;;;;;;;16.16;100.00;100608.06;5049317;28;20084;-79
2022/09/08 03:13:09;;;;;;;15.40;3.90;;;;;;;16.16;100.00;100599.91;5047524;28;20025;-79
2022/09/08 03:15:35;;;;;;;11.07;4.32;;;;;;;16.15;100.00;100592.81;5048611;28;20032;-79
2022/09/08 03:18:04;;;;;;;16.58;4.18;;;;;;;16.13;100.00;100596.69;5051088;28;20021;-80
2022/09/08 03:20:30;;;;;;;12.50;4.57;;;;;;;16.13;100.00;100599.41;5038196;28;20025;-79
2022/09/08 03:22:55;;;;;;;11.93;4.10;;;;;;;16.11;100.00;100594.13;5041324;28;20025;-79
2022/09/08 03:25:20;;;;;;;18.27;4.78;;;;;;;16.11;100.00;100601.41;5014288;28;20041;-79
2022/09/08 03:27:45;;;;;;;13.00;4.13;;;;;;;16.08;100.00;100592.56;5048679;28;20017;-79
2022/09/08 03:30:13;;;;;;;15.45;3.95;;;;;;;16.06;100.00;100607.28;5050196;28;20383;-79
2022/09/08 03:32:41;;;;;;;14.32;4.70;;;;;;;16.05;100.00;100617.28;5048376;28;20043;-79
2022/09/08 03:35:08;;;;;;;18.17;4.82;;;;;;;16.07;100.00;100620.69;5049094;28;20060;-79
2022/09/08 03:37:35;;;;;;;13.48;4.60;;;;;;;16.11;100.00;100633.97;5049009;28;20037;-79
2022/09/08 03:40:09;;;;;;;15.85;4.28;;;;;;;16.10;100.00;100643.94;5050279;28;20044;-79
2022/09/08 03:42:36;;;;;;;11.90;4.03;;;;;;;16.11;100.00;100651.06;5049363;28;20432;-79
2022/09/08 03:45:05;;;;;;;13.15;4.30;;;;;;;16.10;100.00;100656.63;5048486;28;20033;-79
2022/09/08 03:47:31;;;;;;;15.27;4.32;;;;;;;16.08;100.00;100633.25;5049130;28;20021;-79
2022/09/08 03:49:57;;;;;;;11.20;3.95;;;;;;;16.04;100.00;100604.72;5048162;28;20352;-80
2022/09/08 03:52:22;;;;;;;13.70;4.47;;;;;;;16.00;100.00;100603.34;5031324;28;20448;-80
2022/09/08 03:54:48;;;;;;;16.90;4.55;;;;;;;15.92;100.00;100602.41;5049436;28;20021;-80
2022/09/08 03:57:15;;;;;;;14.10;4.53;;;;;;;15.86;100.00;100603.88;5049303;28;20029;-80
2022/09/08 03:59:42;;;;;;;14.23;4.05;;;;;;;15.80;100.00;100599.03;5049140;28;20016;-79
2022/09/08 04:02:08;;;;;;;13.15;4.53;;;;;;;15.75;100.00;100593.22;5039793;28;20032;-80
2022/09/08 04:04:34;;;;;;;16.35;4.45;;;;;;;15.72;100.00;100595.25;5048597;28;20025;-80
2022/09/08 04:06:59;;;;;;;13.85;4.13;;;;;;;15.70;100.00;100599.09;5047044;28;20510;-79
2022/09/08 04:09:24;;;;;;;15.63;5.05;;;;;;;15.67;100.00;100591.28;5041809;28;20103;-80
2022/09/08 04:11:50;;;;;;;15.18;4.57;;;;;;;15.65;100.00;100591.44;5049716;28;20373;-79
2022/09/08 04:14:16;;;;;;;16.10;4.55;;;;;;;15.63;100.00;100592.59;5046726;28;20357;-79
2022/09/08 04:16:41;;;;;;;15.27;4.60;;;;;;;15.62;100.00;100589.00;5051606;28;20108;-80
2022/09/08 04:19:07;;;;;;;19.77;4.70;;;;;;;15.59;100.00;100586.59;5052895;28;20051;-79
2022/09/08 04:21:32;;;;;;;14.15;4.78;;;;;;;15.59;100.00;100597.44;5053919;28;20025;-79
2022/09/08 04:23:59;;;;;;;16.88;4.63;;;;;;;15.55;100.00;100598.75;5046624;28;20025;-79
2022/09/08 04:26:25;;;;;;;11.98;3.97;;;;;;;15.54;100.00;100592.47;5034511;28;20026;-80
2022/09/08 04:28:51;;;;;;;13.18;3.90;;;;;;;15.54;100.00;100592.47;5050953;28;20082;-79
2022/09/08 04:31:16;;;;;;;13.77;4.32;;;;;;;15.54;100.00;100597.06;5052136;28;21577;-79
2022/09/08 04:33:42;;;;;;;13.90;4.13;;;;;;;15.53;100.00;100604.34;5052653;28;20033;-79
2022/09/08 04:36:13;;;;;;;15.60;4.45;;;;;;;15.55;100.00;100610.44;5053111;28;20482;-79
2022/09/08 04:38:40;;;;;;;16.92;4.72;;;;;;;15.54;100.00;100605.19;5051940;28;20051;-79
2022/09/08 04:41:07;;;;;;;19.20;4.50;;;;;;;15.52;100.00;100616.16;5043056;28;20033;-79
2022/09/08 04:43:33;;;;;;;16.38;4.88;;;;;;;15.53;100.00;100607.03;5046624;28;20029;-79
2022/09/08 04:46:04;;;;;;;16.75;4.50;;;;;;;15.54;100.00;100607.88;5052847;28;20107;-79
2022/09/08 04:48:31;;;;;;;19.95;4.55;;;;;;;15.54;100.00;100607.88;5053778;28;20098;-79
2022/09/08 04:50:57;;;;;;;15.43;4.57;;;;;;;15.53;100.00;100607.03;5052814;28;20032;-79
2022/09/08 04:53:23;;;;;;;14.80;4.85;;;;;;;15.57;100.00;100613.00;5042091;28;20044;-79
2022/09/08 04:55:48;;;;;;;12.88;4.50;;;;;;;15.60;100.00;100614.56;5044252;28;20074;-79
2022/09/08 04:58:14;;;;;;;20.17;5.47;;;;;;;15.62;100.00;100617.97;5046624;28;20033;-79
2022/09/08 05:00:39;;;;;;;20.00;5.10;;;;;;;15.61;100.00;100613.53;5047251;28;20029;-79
2022/09/08 05:03:04;;;;;;;16.23;4.38;;;;;;;15.64;100.00;100621.38;5051542;28;20554;-79
2022/09/08 05:05:29;;;;;;;15.40;5.45;;;;;;;15.62;100.00;100618.78;5048611;28;20033;-79
2022/09/08 05:07:55;;;;;;;15.77;4.75;;;;;;;15.63;100.00;100619.66;5052022;28;20484;-79
2022/09/08 05:10:22;;;;;;;19.00;5.00;;;;;;;15.62;100.00;100618.78;5050864;28;20045;-80
2022/09/08 05:12:47;;;;;;;14.40;4.53;;;;;;;15.64;100.00;100622.22;5051286;28;20036;-79
2022/09/08 05:15:12;;;;;;;16.27;5.50;;;;;;;15.64;100.00;100622.22;5051961;28;20043;-79
2022/09/08 05:17:37;;;;;;;13.23;4.50;;;;;;;15.64;100.00;100622.22;5051307;28;20033;-80
2022/09/08 05:20:03;;;;;;;17.40;5.25;;;;;;;15.62;100.00;100623.38;5053248;28;20112;-80
2022/09/08 05:22:29;;;;;;;13.77;4.68;;;;;;;15.62;100.00;100626.09;5045933;28;20021;-79
2022/09/08 05:24:54;;;;;;;17.80;5.05;;;;;;;15.61;100.00;100627.06;5042890;28;20052;-79
2022/09/08 05:27:19;;;;;;;14.57;4.82;;;;;;;15.61;100.00;100627.06;5048101;28;20032;-79
2022/09/08 05:29:47;;;;;;;18.25;5.13;;;;;;;15.62;100.00;100628.78;5040713;28;20022;-79
2022/09/08 05:32:13;;;;;;;15.00;5.10;;;;;;;15.61;100.00;100621.66;5044333;28;20051;-79
2022/09/08 05:34:39;;;;;;;17.10;5.38;;;;;;;15.60;100.00;100620.81;5050383;28;20104;-80
2022/09/08 05:37:04;;;;;;;17.55;4.88;;;;;;;15.59;100.00;100619.09;5050642;28;20063;-80
2022/09/08 05:39:29;;;;;;;15.48;5.88;;;;;;;15.59;100.00;100621.81;5048148;28;20151;-80
2022/09/08 05:41:55;;;;;;;14.77;4.75;;;;;;;15.60;100.00;100618.13;5043353;28;20491;-80
2022/09/08 05:44:20;;;;;;;16.00;5.55;;;;;;;15.60;100.00;100619.97;5048691;28;20490;-79
2022/09/08 05:46:45;;;;;;;17.25;5.55;;;;;;;15.60;100.00;100617.28;5045099;28;20129;-80
2022/09/08 05:49:11;;;;;;;16.00;5.82;;;;;;;15.59;100.00;100621.81;5045956;28;20102;-79
2022/09/08 05:51:36;;;;;;;14.38;4.93;;;;;;;15.63;100.00;100619.66;5043678;28;20025;-79
2022/09/08 05:54:02;;;;;;;15.35;5.32;;;;;;;15.61;100.00;100627.06;5043357;28;20112;-79
2022/09/08 05:56:27;;;;;;;18.83;5.78;;;;;;;15.60;100.00;100615.41;5043027;28;20025;-80
2022/09/08 05:59:00;;;;;;;20.33;6.30;;;;;;;15.59;100.00;100613.69;5041089;28;20495;-80
2022/09/08 06:01:27;;;;;;;17.75;5.40;;;;;;;15.65;100.00;100617.66;5041806;28;20059;-80
2022/09/08 06:03:54;;;;;;;19.15;6.13;;;;;;;15.65;100.00;100620.34;5037014;28;20017;-79
2022/09/08 06:06:20;;;;;;;16.65;6.18;;;;;;;15.68;100.00;100611.94;5044119;28;20036;-79
2022/09/08 06:08:46;;;;;;;18.25;6.13;;;;;;;15.73;100.00;100628.59;5040381;28;20483;-79
2022/09/08 06:11:11;;;;;;;15.63;5.95;;;;;;;15.75;100.00;100631.16;5044051;28;20120;-80
2022/09/08 06:13:37;;;;;;;16.52;5.57;;;;;;;15.78;100.00;100638.97;5039210;28;20104;-79
2022/09/08 06:16:08;;;;;;;17.45;5.93;;;;;;;15.77;100.00;100626.41;5042346;28;20028;-79
2022/09/08 06:18:36;;;;;;;19.42;6.65;;;;;;;15.81;100.00;100638.69;5042907;28;20090;-79
2022/09/08 06:21:16;;;;;;;19.27;6.70;;;;;;;15.83;100.00;100629.41;5045331;28;20391;-79
2022/09/08 06:23:42;;;;;;;19.05;6.50;;;;;;;15.84;100.00;100627.56;5043551;28;20052;-79
2022/09/08 06:26:32;;;;;;;17.40;6.20;;;;;;;15.86;100.00;100626.41;5033910;28;20031;-79
2022/09/08 06:29:11;;;;;;;17.48;6.72;;;;;;;15.88;100.00;100623.53;5039173;28;20538;-79
2022/09/08 06:31:46;;;;;;;18.77;6.75;;;;;;;15.88;100.00;100623.53;5036383;28;20026;-79
2022/09/08 06:34:20;;;;;;;18.50;6.28;;;;;;;15.91;100.00;100628.66;5030563;28;20040;-79
2022/09/08 06:36:52;;;;;;;18.63;6.85;;;;;;;15.93;100.00;100629.38;5042468;28;20043;-79
2022/09/08 06:39:24;;;;;;;20.25;7.85;;;;;;;15.95;100.00;100631.91;5032530;28;20353;-79
2022/09/08 06:41:56;;;;;;;20.77;7.65;;;;;;;15.97;100.00;100638.88;5036257;28;20026;-80
2022/09/08 06:44:31;;;;;;;24.40;8.15;;;;;;;16.01;100.00;100634.84;5030465;28;20037;-80
2022/09/08 06:46:57;;;;;;;20.20;7.20;;;;;;;16.02;100.00;100635.72;5033726;28;20544;-81
2022/09/08 06:49:27;;;;;;;18.90;6.90;;;;;;;16.06;100.00;100642.53;5042720;28;20112;-81
2022/09/08 06:52:02;;;;;;;21.00;7.90;;;;;;;16.07;100.00;100645.06;5030661;28;20043;-81
2022/09/08 06:54:49;;;;;;;19.80;7.53;;;;;;;16.11;100.00;100642.94;5040776;28;20033;-81
2022/09/08 06:58:03;;;;;;;19.85;7.47;;;;;;;16.16;100.00;100647.88;5037492;28;20455;-82
2022/09/08 07:00:38;;;;;;;22.30;8.10;;;;;;;16.14;100.00;100644.50;5024968;28;20051;-79
2022/09/08 07:03:36;;;;;;;22.05;8.48;;;;;;;16.17;100.00;100642.31;5044179;28;20032;-79
2022/09/08 07:06:05;;;;;;;25.02;8.90;;;;;;;16.20;100.00;100646.56;5029503;28;20056;-79
2022/09/08 07:08:33;;;;;;;23.55;8.63;;;;;;;16.24;100.00;100647.97;5036566;28;20123;-79
2022/09/08 07:11:10;;;;;;;26.42;8.50;;;;;;;16.23;100.00;100638.97;5029616;28;20067;-80
2022/09/08 07:14:22;;;;;;;22.25;8.27;;;;;;;16.29;100.00;100642.09;5034080;28;20998;-79
2022/09/08 07:17:00;;;;;;;21.70;8.60;;;;;;;16.32;100.00;100642.63;5025273;28;20021;-79
2022/09/08 07:19:40;;;;;;;23.25;9.00;;;;;;;16.31;100.00;100638.22;5034402;28;20057;-80
2022/09/08 07:22:15;;;;;;;22.05;7.80;;;;;;;16.35;100.00;100641.47;5036119;28;20082;-79
2022/09/08 07:24:42;;;;;;;19.00;7.75;;;;;;;16.39;100.00;100640.16;5030803;28;20025;-79
2022/09/08 07:27:12;;;;;;;23.65;10.10;;;;;;;16.42;100.00;100640.66;5031364;28;20087;-80
2022/09/08 07:29:42;;;;;;;19.42;7.78;;;;;;;16.43;100.00;100639.66;5030304;28;20433;-80
2022/09/08 07:32:27;;;;;;;19.98;9.00;;;;;;;16.49;100.00;100649.06;5037391;28;20112;-79
2022/09/08 07:35:35;;;;;;;22.02;8.77;;;;;;;16.57;100.00;100650.97;5036778;28;20037;-79
2022/09/08 07:38:08;;;;;;;22.08;9.85;;;;;;;16.65;100.00;100652.91;5014081;28;20049;-79
2022/09/08 07:40:45;;;;;;;21.63;10.15;;;;;;;16.72;100.00;100653.97;5030510;28;20384;-80
2022/09/08 07:43:13;;;;;;;23.08;9.48;;;;;;;16.76;100.00;100641.78;5034920;28;20038;-79
2022/09/08 07:46:01;;;;;;;21.88;9.35;;;;;;;16.84;100.00;100641.88;5028693;28;20121;-79
2022/09/08 07:48:57;;;;;;;22.60;8.85;;;;;;;16.91;100.00;100647.53;5036137;28;20062;-80
2022/09/08 07:51:29;;;;;;;20.92;8.73;;;;;;;16.94;100.00;100644.50;5040044;28;20033;-79
2022/09/08 07:54:17;;;;;;;19.02;8.50;;;;;;;16.96;100.00;100653.34;5050073;28;20428;-79
2022/09/08 07:57:01;;;;;;;21.60;9.15;;;;;;;17.01;100.00;100656.41;5048399;28;20055;-79
2022/09/08 08:00:11;;;;;;;21.25;8.75;;;;;;;17.03;100.00;100657.13;5065347;28;20029;-79
2022/09/08 08:03:05;;;;;;;21.00;10.07;;;;;;;17.02;100.00;100660.84;5024606;28;20465;-79
2022/09/08 08:05:40;;;;;;;19.85;8.60;;;;;;;17.01;100.00;100666.44;5040575;28;20043;-78
2022/09/08 08:08:42;;;;;;;21.70;8.60;;;;;;;17.06;100.00;100666.84;5043040;28;20025;-79
2022/09/08 08:11:48;;;;;;;21.70;7.70;;;;;;;17.06;100.00;100666.84;5042370;28;20041;-80
2022/09/08 08:14:25;;;;;;;22.25;8.65;;;;;;;17.07;100.00;100663.09;5044820;28;20051;-79
2022/09/08 08:17:15;;;;;;;26.48;8.57;;;;;;;17.13;100.00;100665.19;5036876;28;20075;-79
2022/09/08 08:20:05;;;;;;;19.30;7.93;;;;;;;17.21;100.00;100661.66;5047027;28;20051;-79
2022/09/08 08:22:46;;;;;;;21.58;8.43;;;;;;;17.24;100.00;100666.75;5036246;28;20419;-80
2022/09/08 08:25:25;;;;;;;19.98;7.90;;;;;;;17.27;99.41;100670.00;5039661;28;20985;-79
2022/09/08 08:28:17;;;;;;;19.90;7.40;;;;;;;17.28;99.05;100666.28;5058529;28;20458;-79
2022/09/08 08:31:14;;;;;;;17.35;7.28;;;;;;;17.34;100.00;100662.06;5036122;28;20124;-79
2022/09/08 08:33:48;;;;;;;18.13;7.28;;;;;;;17.32;99.20;100664.09;4998282;28;20053;-79
2022/09/08 08:36:17;;;;;;;18.42;7.32;;;;;;;17.29;97.87;100667.13;4995675;28;20048;-79
2022/09/08 08:38:46;;;;;;;17.55;7.05;;;;;;;17.28;96.80;100660.84;4976459;28;20045;-79
2022/09/08 08:41:31;;;;;;;20.50;7.15;;;;;;;17.30;97.07;100671.53;4997726;28;20148;-79
2022/09/08 08:44:30;;;;;;;16.30;6.72;;;;;;;17.33;96.58;100660.34;4984172;28;20132;-79
2022/09/08 08:47:19;;;;;;;20.67;6.32;;;;;;;17.36;96.66;100664.63;4997521;28;20050;-80
2022/09/08 08:50:19;;;;;;;15.98;6.75;;;;;;;17.41;97.60;100665.84;4995737;28;20034;-79
2022/09/08 08:52:59;;;;;;;17.15;5.88;;;;;;;17.49;96.70;100662.31;5007448;28;20033;-79
2022/09/08 08:55:45;;;;;;;18.52;5.63;;;;;;;17.55;98.03;100661.66;4993074;28;20026;-78
2022/09/08 08:58:30;;;;;;;16.85;6.28;;;;;;;17.64;97.13;100670.69;4993099;28;20053;-79
2022/09/08 09:01:11;;;;;;;13.88;4.95;;;;;;;17.73;97.12;100661.56;4993250;28;20149;-79
2022/09/08 09:04:06;;;;;;;17.92;5.38;;;;;;;17.80;96.48;100662.63;5002527;28;20145;-79
2022/09/08 09:06:45;;;;;;;15.38;5.15;;;;;;;17.89;95.00;100658.06;4978491;28;20103;-80
2022/09/08 09:09:29;;;;;;;;;;;;;;;17.96;96.08;100656.41;4991623;28;20699;-79
2022/09/08 09:12:48;;;;;;;11.77;3.78;;;;;;;17.98;94.71;100661.69;5030823;28;20657;-79
2022/09/08 09:15:24;;;;;;;12.50;4.25;;;;;;;18.03;92.46;100653.88;4997244;28;20030;-80
2022/09/08 09:18:08;;;;;;;10.07;4.47;;;;;;;18.06;92.54;100656.25;5001530;28;20030;-79
2022/09/08 09:20:55;;;;;;;10.32;4.38;;;;;;;18.12;92.37;100658.31;4998355;28;20042;-79
2022/09/08 09:23:34;;;;;;;14.63;4.25;;;;;;;18.17;89.59;100655.13;4994574;28;20909;-80
2022/09/08 09:26:02;;;;;;;8.48;3.25;;;;;;;18.21;88.38;100659.16;4988831;28;20058;-81
2022/09/08 09:28:54;;;;;;;11.40;4.05;;;;;;;18.28;90.33;100653.94;4972072;28;20042;-80
2022/09/08 09:31:46;;;;;;;11.98;3.65;;;;;;;18.36;89.31;100664.84;4997852;28;20125;-80
2022/09/08 09:34:34;;;;;;;14.10;3.60;;;;;;;18.37;86.29;100661.06;4984672;28;20037;-79
2022/09/08 09:37:21;;;;;;;10.98;3.30;;;;;;;18.39;87.71;100656.34;4989456;28;20429;-80
2022/09/08 09:40:05;;;;;;;12.98;3.60;;;;;;;18.41;86.74;100657.00;4996276;28;20038;-79
2022/09/08 09:42:54;;;;;;;13.93;4.00;;;;;;;18.46;87.19;100653.75;4997422;28;20025;-79
2022/09/08 09:45:29;;;;;;;11.25;3.72;;;;;;;18.51;85.86;100654.13;5000145;28;20053;-79
2022/09/08 09:48:26;;;;;;;6.18;3.00;;;;;;;18.59;87.22;100653.28;5030865;28;20385;-80
2022/09/08 09:50:59;;;;;;;14.18;3.72;;;;;;;18.63;84.33;100658.19;5036679;28;21222;-80
2022/09/08 09:53:56;;;;;;;12.23;3.75;;;;;;;18.68;84.98;100660.41;5033024;28;20048;-79
2022/09/08 09:56:45;;;;;;;14.40;3.78;;;;;;;18.68;85.03;100650.38;5032588;28;20029;-78
2022/09/08 09:59:11;;;;;;;13.23;3.33;;;;;;;18.70;85.34;100655.66;5034274;28;20048;-78
2022/09/08 10:02:08;;;;;;;8.60;3.03;;;;;;;18.70;84.23;100655.66;5039869;28;20041;-79
2022/09/08 10:05:09;;;;;;;12.23;3.17;;;;;;;18.75;84.86;100666.88;5030575;28;20101;-79
2022/09/08 10:08:08;;;;;;;15.23;3.40;;;;;;;18.81;85.06;100670.78;5031635;28;20560;-78
2022/09/08 10:10:48;;;;;;;15.52;3.08;;;;;;;18.83;81.77;100669.59;5034856;28;20088;-80
2022/09/08 10:13:35;;;;;;;13.45;3.60;;;;;;;18.82;80.54;100665.16;5041397;28;20114;-80
2022/09/08 10:16:32;;;;;;;11.85;3.50;;;;;;;18.83;81.75;100668.75;5036713;28;20024;-80
2022/09/08 10:19:34;;;;;;;10.80;2.72;;;;;;;18.82;82.35;100670.63;5033147;28;20056;-79
2022/09/08 10:22:14;;;;;;;12.68;3.17;;;;;;;18.76;80.29;100675.91;5034032;28;20037;-80
2022/09/08 10:24:58;;;;;;;9.65;3.05;;;;;;;18.74;82.08;100670.63;5043218;28;20091;-79
2022/09/08 10:27:38;;;;;;;10.63;3.20;;;;;;;18.71;82.05;100673.66;5032242;28;20041;-79
2022/09/08 10:30:42;;;;;;;12.60;3.22;;;;;;;18.69;81.42;100678.44;5033860;28;20141;-80
2022/09/08 10:33:27;;;;;;;10.88;2.83;;;;;;;18.64;80.28;100669.97;5032604;28;20037;-80
2022/09/08 10:36:00;;;;;;;13.25;3.50;;;;;;;18.69;81.43;100664.84;5035324;28;20033;-80
2022/09/08 10:38:28;;;;;;;13.30;3.08;;;;;;;18.74;79.83;100675.22;5033275;28;20522;-81
2022/09/08 10:40:56;;;;;;;11.30;3.47;;;;;;;18.75;79.91;100666.88;5026993;28;20095;-81
2022/09/08 10:43:30;;;;;;;8.98;2.90;;;;;;;18.79;79.83;100668.22;5038867;28;20070;-80
2022/09/08 10:46:02;;;;;;;7.72;2.88;;;;;;;18.84;78.69;100662.28;5033936;28;20044;-81
2022/09/08 10:48:49;;;;;;;12.25;3.38;;;;;;;18.81;79.21;100658.00;5038610;28;20040;-81
2022/09/08 10:52:02;;;;;;;11.25;3.30;;;;;;;18.80;80.97;100650.00;5033768;28;20460;-80
2022/09/08 10:54:40;;;;;;;14.15;3.35;;;;;;;18.74;81.30;100657.03;5030506;28;20133;-79
2022/09/08 10:57:19;;;;;;;11.50;3.25;;;;;;;18.71;81.47;100665.50;5031893;28;20476;-80
2022/09/08 10:59:54;;;;;;;;;;;;;;;18.74;82.67;100654.31;5044766;28;20032;-80
2022/09/08 11:02:31;;;;;;;12.05;3.13;;;;;;;18.79;82.78;100651.06;5032645;28;19921;-81
2022/09/08 11:05:23;;;;;;;9.00;3.08;;;;;;;18.86;81.79;100652.94;5033908;28;20087;-80
2022/09/08 11:08:13;;;;;;;14.82;3.88;;;;;;;18.91;80.85;100649.72;5048412;28;20091;-80
2022/09/08 11:10:44;;;;;;;18.25;3.90;;;;;;;18.99;81.20;100648.84;5039896;28;20099;-80
2022/09/08 11:13:25;;;;;;;12.15;3.13;;;;;;;19.03;79.60;100642.03;5041103;28;20033;-80
2022/09/08 11:16:15;;;;;;;14.85;3.30;;;;;;;19.09;79.98;100644.06;5033042;28;20507;-79
2022/09/08 11:19:02;;;;;;;14.23;3.30;;;;;;;19.18;78.34;100651.19;5030742;28;20060;-80
2022/09/08 11:21:30;;;;;;;10.07;2.88;;;;;;;19.21;75.47;100658.19;5032039;28;20029;-80
2022/09/08 11:24:18;;;;;;;12.82;3.58;;;;;;;19.23;77.07;100642.50;5028523;28;20532;-80
2022/09/08 11:27:18;;;;;;;10.55;3.30;;;;;;;19.21;75.37;100645.41;5027795;28;20064;-80
2022/09/08 11:29:56;;;;;;;11.02;3.35;;;;;;;19.18;72.71;100644.88;4987888;28;20050;-80
2022/09/08 11:32:32;;;;;;;8.23;2.70;;;;;;;19.20;75.67;100640.97;4996480;28;20053;-80
2022/09/08 11:35:31;;;;;;;16.58;3.70;;;;;;;19.30;77.26;100640.78;4992861;28;20475;-79
2022/09/08 11:38:27;;;;;;;10.32;3.22;;;;;;;19.45;78.31;100627.25;4995161;28;20052;-80
2022/09/08 11:41:14;;;;;;;10.50;2.83;;;;;;;19.49;74.84;100628.63;4992862;28;20694;-80
2022/09/08 11:43:46;;;;;;;10.32;3.03;;;;;;;19.44;72.47;100627.44;4993767;28;20515;-80
2022/09/08 11:46:17;;;;;;;12.23;3.58;;;;;;;19.50;72.51;100638.50;4989448;28;20030;-80
2022/09/08 11:49:20;;;;;;;12.00;3.53;;;;;;;19.58;72.50;100636.75;4981555;28;20048;-80
2022/09/08 11:51:52;;;;;;;12.38;3.75;;;;;;;19.72;72.25;100627.81;4997080;28;20026;-80
2022/09/08 11:54:20;;;;;;;7.97;3.25;;;;;;;19.76;68.54;100629.16;4987905;28;20034;-80
2022/09/08 11:57:07;;;;;;;9.90;3.28;;;;;;;19.87;72.25;100619.78;4987015;28;20408;-80